Weather at Guaicanamar Airport

Public forecast

Using degrees Celsius for public forecast. Weather courtesy of forecast.io.

Closest aviation weather report (METAR) to Guaicanamar Airport

Closest report is Ignacio Agramonte International Airport, 31.5 nm (58.4 km) N. Retrieved 2021/10/19 12:51 UTC (2 hours ago):

MUCM 191251Z 05004KT 9000 NSC 26/23 Q1016

Closest aviation forecast (TAF) to Guaicanamar Airport

Closest forecast is Ignacio Agramonte International Airport, 31.5 nm (58.4 km) N. Retrieved 2021/10/19 12:03 UTC (2 hours ago):

TAF MUCM 191100Z 1912/2012 VRB03KT 9000 FEW040 BECMG 1915/1917 05012KT SCT020 BECMG 2000/2002 VRB03KT